^^
Vremenska postaja Bezina
 
Daily Summary for April 19, 2018 Units:  Metric    English   Both
« Previous Day
Next Day »
Daily Weekly Monthly Yearly Custom
  Current: High: Low: Average:
Temperature: -5.5 °C -17.8 °C -13.7 °C -11.1 °C
Dew Point: -14.1 °C -17.8 °C -14.7 °C -13.7 °C
Humidity: 37% Humidity% 37% 75%
Wind Speed: 7.7km/h 0km/h 0km/h 3.5km/h
Wind Gust: 15.6km/h 0km/h - -
WindSSE - - ESE
Pressure: 34818.2 hPa 0 hPa 34818.2 hPa -
Precipitation: 0 mm      
Historical Graphs
 
 
Tabular Data for April 19, 2018
Time Temperature Dew Point Pressure Wind Wind Speed Wind Gust Humidity Rainfall Rate (Hourly) solar Conditions
-17.8 °C -17.8 °C 0 hPa Calm     Humidity% 0 mm SolarRadiationWatts/m^2 W/m2 Conditions
00:00 -12.4 °C -13.6 °C 34875.8 hPa Calm   5.1 km/h 87% 0 mm 0 W/m2
00:15 -12.6 °C -13.7 °C 34875.8 hPa Calm   2.6 km/h 87% 0 mm 0 W/m2
00:30 -12.7 °C -13.8 °C 34875.8 hPa Calm     87% 0 mm 0 W/m2
00:45 -12.8 °C -13.8 °C 34889.3 hPa Calm     88% 0 mm 0 W/m2
01:00 -12.9 °C -13.9 °C 34875.8 hPa Calm     88% 0 mm 0 W/m2
01:15 -12.9 °C -13.9 °C 34875.8 hPa Calm   5.1 km/h 88% 0 mm 0 W/m2
01:30 -12.8 °C -14.1 °C 34875.8 hPa East 2.6 km/h 5.1 km/h 86% 0 mm 0 W/m2
01:45 -12.8 °C -14 °C 34875.8 hPa Calm   7.7 km/h 86% 0 mm 0 W/m2
02:00 -12.7 °C -14.1 °C 34875.8 hPa NE 5.1 km/h 7.7 km/h 85% 0 mm 0 W/m2
02:15 -12.7 °C -13.9 °C 34875.8 hPa NE 5.1 km/h 7.7 km/h 86% 0 mm 0 W/m2
02:30 -12.7 °C -14.1 °C 34875.8 hPa Calm   5.1 km/h 85% 0 mm 0 W/m2
02:45 -12.9 °C -14.2 °C 34865.6 hPa Calm   5.1 km/h 86% 0 mm 0 W/m2
03:00 -13.1 °C -14.2 °C 34865.6 hPa Calm   5.1 km/h 87% 0 mm 0 W/m2
03:15 -13.2 °C -14.3 °C 34865.6 hPa NE 5.1 km/h 7.7 km/h 87% 0 mm 0 W/m2
03:30 -13 °C -14.3 °C 34875.8 hPa NE 5.1 km/h 7.7 km/h 86% 0 mm 0 W/m2
03:45 -12.9 °C -14.3 °C 34865.6 hPa NE 2.6 km/h 7.7 km/h 85% 0 mm 0 W/m2
04:00 -13 °C -14.3 °C 34865.6 hPa NE 5.1 km/h 7.7 km/h 85% 0 mm 0 W/m2
04:15 -13.1 °C -14.4 °C 34865.6 hPa Calm   2.6 km/h 85% 0 mm 0 W/m2
04:30 -13.3 °C -14.5 °C 34865.6 hPa Calm   5.1 km/h 86% 0 mm 0 W/m2
04:45 -13.4 °C -14.6 °C 34865.6 hPa NE 2.6 km/h 5.1 km/h 87% 0 mm 0 W/m2
05:00 -13.4 °C -14.5 °C 34865.6 hPa Calm   2.6 km/h 88% 0 mm 0 W/m2
05:15 -13.5 °C -14.6 °C 34865.6 hPa Calm   5.1 km/h 88% 0 mm 0 W/m2
05:30 -13.6 °C -14.6 °C 34865.6 hPa Calm   5.1 km/h 89% 0 mm 0 W/m2
05:45 -13.7 °C -14.7 °C 34865.6 hPa NE 5.1 km/h 5.1 km/h 89% 0 mm 0 W/m2
06:00 -13.5 °C -14.4 °C 34865.6 hPa Calm   7.7 km/h 89% 0 mm 0 W/m2
06:15 -13.4 °C -14.5 °C 34865.6 hPa Calm   5.1 km/h 88% 0 mm 9 W/m2
06:30 -13.5 °C -14.4 °C 34865.6 hPa Calm   5.1 km/h 89% 0 mm 16 W/m2
06:45 -13.4 °C -14.4 °C 34865.6 hPa Calm   5.1 km/h 89% 0 mm 21 W/m2
07:00 -13.4 °C -14.3 °C 34865.6 hPa NNE 2.6 km/h 5.1 km/h 90% 0 mm 26 W/m2
07:15 -13.2 °C -14 °C 34865.6 hPa NNE 2.6 km/h 5.1 km/h 91% 0 mm 30 W/m2
07:30 -12.9 °C -13.8 °C 34875.8 hPa NE 2.6 km/h 5.1 km/h 90% 0 mm 33 W/m2
07:45 -12.7 °C -13.8 °C 34875.8 hPa Calm   7.7 km/h 87% 0 mm 37 W/m2
08:00 -12.3 °C -13.5 °C 34875.8 hPa ENE 5.1 km/h 7.7 km/h 87% 0 mm 44 W/m2
08:15 -11.9 °C -13.2 °C 34875.8 hPa ENE 2.6 km/h 2.6 km/h 86% 0 mm 44 W/m2
08:30 -11.3 °C -13 °C 34875.8 hPa Calm   5.1 km/h 81% 0 mm 47 W/m2
08:45 -10.7 °C -12.9 °C 34875.8 hPa East 5.1 km/h 7.7 km/h 76% 0 mm 53 W/m2
09:00 -9.8 °C -12.9 °C 34865.6 hPa East 5.1 km/h 7.7 km/h 69% 0 mm 420 W/m2
09:15 -9 °C -12.9 °C 34865.6 hPa SSE 2.6 km/h 7.7 km/h 63% 0 mm 462 W/m2
09:30 -8.5 °C -13 °C 34865.6 hPa South 7.7 km/h 15.6 km/h 59% 0 mm 499 W/m2
09:45 -8.4 °C -12.6 °C 34865.6 hPa SSE 12.9 km/h 12.9 km/h 61% 0 mm 538 W/m2
10:00 -8.2 °C -12.8 °C 34865.6 hPa South 2.6 km/h 12.9 km/h 58% 0 mm 573 W/m2
10:15 -7.9 °C -12.6 °C 34865.6 hPa South 10.3 km/h 12.9 km/h 58% 0 mm 610 W/m2
10:30 -7.7 °C -12.3 °C 34865.6 hPa South 2.6 km/h 12.9 km/h 58% 0 mm 643 W/m2
10:45 -7.3 °C -12.4 °C 34865.6 hPa Calm   25.9 km/h 55% 0 mm 671 W/m2
11:00 -7 °C -12.4 °C 34865.6 hPa NE 10.3 km/h 18.2 km/h 53% 0 mm 693 W/m2
11:15 -6.8 °C -12.3 °C 34852.1 hPa Calm   12.9 km/h 53% 0 mm 717 W/m2
11:30 -6.6 °C -12.2 °C 34852.1 hPa SSE 10.3 km/h 20.8 km/h 52% 0 mm 731 W/m2
11:45 -6.4 °C -12.7 °C 34852.1 hPa SSE 2.6 km/h 10.3 km/h 48% 0 mm 747 W/m2
12:00 -6.4 °C -12.7 °C 34852.1 hPa East 2.6 km/h 25.9 km/h 48% 0 mm 766 W/m2
12:15 -6.5 °C -12.3 °C 34841.9 hPa South 10.3 km/h 20.8 km/h 51% 0 mm 773 W/m2
12:30 -6.2 °C -12.2 °C 34841.9 hPa South 15.6 km/h 18.2 km/h 50% 0 mm 780 W/m2
12:45 -5.9 °C -11.8 °C 34831.8 hPa South 18.2 km/h 31.1 km/h 51% 0 mm 788 W/m2
13:00 -5.7 °C -12.3 °C 34831.8 hPa South 12.9 km/h 31.1 km/h 47% 0 mm 791 W/m2
13:15 -5.5 °C -14.1 °C 34818.2 hPa SSE 7.7 km/h 15.6 km/h 37% 0 mm 795 W/m2
Juneau County Weather
Compliments of Weather Underground - 1.75 mb